Woodinville, WA (98077)

12:55 AM PST on February 13, 2016 (GMT -0800)
Cottage Lake | | Change Station
CLOSE
Current Station
Personal Weather Station
Location: Woodinville, WA
Elevation: 338 ft
Nearby Weather Stations

Elev 338 ft 47.75 °N, 122.10 °W | Updated 3 minutes ago

Overcast
Overcast
46.0 °F
Feels Like 46 °F
N
1.0
Wind Variable Wind from West
Gusts 3.0 mph

Today
High -- | Low -- °F
--% Chance of Precip.
Yesterday
High -- | Low -- °F
Precip. -- in
Pressure 30.17 in
Visibility 5.0 miles
Clouds Few 1500 ft
Mostly Cloudy 2400 ft
Overcast 7500 ft
Windchill 46 °F
Dew Point 45 °F
Humidity 97%
Rainfall 0.01 in
Snow Depth Not available.
7:18 AM 5:27 PM
Waxing Crescent, 28% visible
METAR KPAE 130853Z AUTO 20019G29KT 5SM -RA FEW015 BKN024 OVC075 08/05 A3016 RMK AO2 PK WND 19029/0850 RAB38 SLP215 P0002 60002 T00830050 53004
Pressure 30.17 in
Visibility 5.0 miles
Clouds Few 1500 ft
Mostly Cloudy 2400 ft
Overcast 7500 ft
Windchill 46 °F
Dew Point 45 °F
Humidity 97%
Rainfall 0.01 in
Snow Depth Not available.
7:18 AM 5:27 PM
Waxing Crescent, 28% visible
METAR KPAE 130853Z AUTO 20019G29KT 5SM -RA FEW015 BKN024 OVC075 08/05 A3016 RMK AO2 PK WND 19029/0850 RAB38 SLP215 P0002 60002 T00830050 53004

10-Day Weather Forecast

Almanac

Astronomy

Feb. 13, 2016 Rise Set
Actual Time
Civil Twilight
Nautical Twilight
Astronomical Twilight
Moon
Length of Visible Light
Length of Day
Tomorrow will be .
, % of the Moon is Illuminated

Today's Extremes

State Highs State Lows

Community

WunderPhotos

Upload Photos

1,892,536 photos uploaded!

WunderBlog® & News

Nearby

Air Quality

  Air Quality AQ Index Pollutant
Not available.

Snow Depth

Station Depth Elevation

Earthquake Activity

City Distance Mag. Time & Date
Minimum magnitude displayed is 2.5.

Coastal Water Temperatures

Place Temperature

Stations

Nearby Weather Stations

Station Location Temp. Windchill Dew Point Humidity Wind Precip. Elev Updated Type
                   

Watches & Warnings

There are currently no watches in effect.